Time;durP1;ratioP1;P1;durP2;ratioP2;P2;SDS_P1;SDS_P2;PMS_P1;PMS_P2;Temp;Humidity;BMP_temperature;BMP_pressure;BME280_temperature;BME280_humidity;BME280_pressure;Samples;Min_cycle;Max_cycle;Signal;HPM_P1;HPM_P2
2021/01/28 00:01:05;;;;;;;93.93;25.00;;;;;;;-145.48;100.00;59605.97;6237081;23;20473;-77
2021/01/28 00:03:30;;;;;;;129.85;27.77;;;;;;;-145.48;100.00;59605.97;6238893;23;20008;-77
2021/01/28 00:05:56;;;;;;;112.15;25.95;;;;;;;-145.48;100.00;59605.97;6238938;23;20395;-77
2021/01/28 00:08:21;;;;;;;257.20;33.20;;;;;;;-145.48;100.00;59605.97;6212707;23;20011;-77
2021/01/28 00:10:46;;;;;;;141.48;28.35;;;;;;;-145.48;100.00;59605.97;6238138;23;20103;-77
2021/01/28 00:13:12;;;;;;;132.70;27.95;;;;;;;-145.48;100.00;59605.97;6241701;23;20000;-78
2021/01/28 00:15:54;;;;;;;260.45;33.47;;;;;;;-145.48;100.00;59605.97;6240823;23;20072;-78
2021/01/28 00:18:19;;;;;;;140.45;27.05;;;;;;;-145.48;100.00;59605.97;6240866;23;20004;-77
2021/01/28 00:20:48;;;;;;;226.90;34.25;;;;;;;-145.48;100.00;59605.97;6241478;23;20048;-79
2021/01/28 00:23:14;;;;;;;246.40;33.53;;;;;;;-145.48;100.00;59605.97;6216539;23;20000;-79
2021/01/28 00:25:40;;;;;;;143.55;32.60;;;;;;;-145.48;100.00;59605.97;6243452;23;19996;-78
2021/01/28 00:28:08;;;;;;;104.90;30.25;;;;;;;-145.48;100.00;59605.97;6245963;23;20000;-79
2021/01/28 00:30:40;;;;;;;111.15;28.80;;;;;;;-145.48;100.00;59605.97;6238944;23;20028;-78
2021/01/28 00:33:06;;;;;;;260.63;33.53;;;;;;;-145.48;100.00;59605.97;6241999;23;20023;-78
2021/01/28 00:35:38;;;;;;;143.77;31.30;;;;;;;-145.48;100.00;59605.97;6243249;23;20040;-78
2021/01/28 00:38:06;;;;;;;190.73;33.53;;;;;;;-145.48;100.00;59605.97;6244623;23;20154;-79
2021/01/28 00:40:32;;;;;;;103.13;28.23;;;;;;;-145.48;100.00;59605.97;6242266;23;20007;-78
2021/01/28 00:42:58;;;;;;;137.57;30.30;;;;;;;-145.48;100.00;59605.97;6242402;23;20008;-79
2021/01/28 00:45:25;;;;;;;165.30;31.60;;;;;;;-145.48;100.00;59605.97;6242693;23;20024;-79
2021/01/28 00:47:50;;;;;;;134.07;30.85;;;;;;;-145.48;100.00;59605.97;6245702;23;20078;-79
2021/01/28 00:50:18;;;;;;;114.70;30.45;;;;;;;-145.48;100.00;59605.97;6244322;23;20012;-79
2021/01/28 00:52:44;;;;;;;118.47;32.08;;;;;;;-145.48;100.00;59605.97;6215770;23;20015;-78
2021/01/28 00:55:11;;;;;;;131.82;32.35;;;;;;;-145.48;100.00;59605.97;6240339;23;19996;-78
2021/01/28 00:57:37;;;;;;;89.05;29.88;;;;;;;-145.48;100.00;59605.97;6215246;23;20557;-77
2021/01/28 01:00:16;;;;;;;114.00;32.38;;;;;;;-145.48;100.00;59605.97;6239716;23;20057;-77
2021/01/28 01:02:42;;;;;;;99.43;33.58;;;;;;;-145.48;100.00;59605.97;6237026;23;19996;-77
2021/01/28 01:05:11;;;;;;;265.35;41.58;;;;;;;-145.48;100.00;59605.97;6242524;23;20359;-78
2021/01/28 01:07:36;;;;;;;120.65;33.20;;;;;;;-145.48;100.00;59605.97;6243718;23;20006;-78
2021/01/28 01:10:04;;;;;;;114.95;32.95;;;;;;;-145.48;100.00;59605.97;6214942;23;20007;-78
2021/01/28 01:12:30;;;;;;;150.70;35.30;;;;;;;-145.48;100.00;59605.97;6244364;23;20361;-78
2021/01/28 01:14:55;;;;;;;163.80;33.25;;;;;;;-145.48;100.00;59605.97;6243611;23;20087;-78
2021/01/28 01:17:21;;;;;;;146.10;33.60;;;;;;;-145.48;100.00;59605.97;6243823;23;20046;-78
2021/01/28 01:19:46;;;;;;;119.53;33.28;;;;;;;-145.48;100.00;59605.97;6242478;23;20012;-78
2021/01/28 01:22:11;;;;;;;208.20;35.70;;;;;;;-145.48;100.00;59605.97;6243979;23;20042;-78
2021/01/28 01:24:37;;;;;;;151.10;33.03;;;;;;;-145.48;100.00;59605.97;6216307;23;20009;-78
2021/01/28 01:27:03;;;;;;;175.65;34.58;;;;;;;-145.48;100.00;59605.97;6244111;23;20014;-78
2021/01/28 01:29:28;;;;;;;263.45;36.45;;;;;;;-145.48;100.00;59605.97;6242327;23;20008;-78
2021/01/28 01:31:53;;;;;;;345.27;41.92;;;;;;;-145.48;100.00;59605.97;6236161;23;20443;-78
2021/01/28 01:34:18;;;;;;;369.15;44.88;;;;;;;-145.48;100.00;59605.97;6214878;23;20031;-78
2021/01/28 01:36:44;;;;;;;182.05;38.25;;;;;;;-145.48;100.00;59605.97;6214807;23;20008;-78
2021/01/28 01:39:09;;;;;;;117.35;36.67;;;;;;;-145.48;100.00;59605.97;6241970;23;20002;-78
2021/01/28 01:41:34;;;;;;;156.27;35.38;;;;;;;-145.48;100.00;59605.97;6242833;23;20011;-78
2021/01/28 01:44:01;;;;;;;190.02;38.50;;;;;;;-145.48;100.00;59605.97;6246017;23;20701;-78
2021/01/28 01:46:26;;;;;;;164.10;36.97;;;;;;;-145.48;100.00;59605.97;6246091;23;20862;-78
2021/01/28 01:48:57;;;;;;;160.38;38.92;;;;;;;-145.48;100.00;59605.97;6243761;23;20012;-78
2021/01/28 01:51:24;;;;;;;148.40;34.47;;;;;;;-145.48;100.00;59605.97;6244284;23;20047;-78
2021/01/28 01:54:04;;;;;;;146.98;34.90;;;;;;;-145.48;100.00;59605.97;6244706;23;20054;-78
2021/01/28 01:56:40;;;;;;;138.15;35.35;;;;;;;-145.48;100.00;59605.97;6242558;23;19996;-77
2021/01/28 01:59:17;;;;;;;110.50;32.85;;;;;;;-145.48;100.00;59605.97;6240612;23;20027;-76
2021/01/28 02:01:46;;;;;;;178.05;36.08;;;;;;;-145.48;100.00;59605.97;6240791;23;20042;-77
2021/01/28 02:04:13;;;;;;;139.88;37.13;;;;;;;-145.48;100.00;59605.97;6240981;23;20036;-77
2021/01/28 02:06:44;;;;;;;156.82;36.88;;;;;;;-145.48;100.00;59605.97;6241348;23;20019;-78
2021/01/28 02:09:11;;;;;;;144.80;36.22;;;;;;;-145.48;100.00;59605.97;6242628;23;20007;-78
2021/01/28 02:11:44;;;;;;;135.70;36.28;;;;;;;-145.48;100.00;59605.97;6242915;23;20011;-78
2021/01/28 02:14:12;;;;;;;144.60;34.58;;;;;;;-145.48;100.00;59605.97;6243434;23;20016;-78
2021/01/28 02:16:53;;;;;;;135.30;33.75;;;;;;;-145.48;100.00;59605.97;6243387;23;20008;-78
2021/01/28 02:19:40;;;;;;;216.23;36.72;;;;;;;-145.48;100.00;59605.97;6240999;23;20004;-78
2021/01/28 02:22:06;;;;;;;175.65;33.10;;;;;;;-145.48;100.00;59605.97;6241950;23;19996;-78
2021/01/28 02:24:48;;;;;;;177.23;36.50;;;;;;;-145.48;100.00;59605.97;6242652;23;20099;-78
2021/01/28 02:27:13;;;;;;;181.23;34.67;;;;;;;-145.48;100.00;59605.97;6244075;23;20007;-79
2021/01/28 02:29:39;;;;;;;191.15;38.05;;;;;;;-145.48;100.00;59605.97;6241686;23;20003;-79
2021/01/28 02:32:05;;;;;;;132.48;37.55;;;;;;;-145.48;100.00;59605.97;6213418;23;20019;-79
2021/01/28 02:34:31;;;;;;;331.08;44.70;;;;;;;-145.48;100.00;59605.97;6215691;23;20411;-79
2021/01/28 02:36:57;;;;;;;207.70;37.05;;;;;;;-145.48;100.00;59605.97;6243283;23;20000;-80
2021/01/28 02:39:25;;;;;;;194.57;37.08;;;;;;;-145.48;100.00;59605.97;6242384;23;20014;-79
2021/01/28 02:42:02;;;;;;;202.65;36.47;;;;;;;-145.48;100.00;59605.97;6242222;23;20015;-78
2021/01/28 02:44:27;;;;;;;191.52;34.72;;;;;;;-145.48;100.00;59605.97;6243141;23;20379;-78
2021/01/28 02:46:53;;;;;;;204.25;36.70;;;;;;;-145.48;100.00;59605.97;6243356;22;20043;-79
2021/01/28 02:49:19;;;;;;;204.88;36.78;;;;;;;-145.48;100.00;59605.97;6241369;23;20568;-79
2021/01/28 02:51:44;;;;;;;202.77;35.50;;;;;;;-145.48;100.00;59605.97;6243035;23;20417;-79
2021/01/28 02:54:11;;;;;;;135.18;34.28;;;;;;;-145.48;100.00;59605.97;6216784;23;20004;-78
2021/01/28 02:56:36;;;;;;;189.40;36.50;;;;;;;-145.48;100.00;59605.97;6244029;23;20322;-78
2021/01/28 02:59:01;;;;;;;221.23;37.63;;;;;;;-145.48;100.00;59605.97;6243513;23;20115;-79
2021/01/28 03:01:27;;;;;;;174.25;34.13;;;;;;;-145.48;100.00;59605.97;6243132;23;20023;-78
2021/01/28 03:03:52;;;;;;;172.48;34.63;;;;;;;-145.48;100.00;59605.97;6242550;23;20425;-79
2021/01/28 03:06:17;;;;;;;141.00;34.65;;;;;;;-145.48;100.00;59605.97;6242275;23;20004;-79
2021/01/28 03:08:43;;;;;;;163.93;36.20;;;;;;;-145.48;100.00;59605.97;6241954;23;20008;-78
2021/01/28 03:11:08;;;;;;;182.48;36.45;;;;;;;-145.48;100.00;59605.97;6242585;23;20004;-79
2021/01/28 03:13:33;;;;;;;167.70;35.60;;;;;;;-145.48;100.00;59605.97;6215464;23;20000;-78
2021/01/28 03:15:59;;;;;;;162.98;38.50;;;;;;;-145.48;100.00;59605.97;6215864;23;20011;-78
2021/01/28 03:18:25;;;;;;;192.57;38.83;;;;;;;-145.48;100.00;59605.97;6241431;23;20667;-78
2021/01/28 03:20:51;;;;;;;161.27;39.40;;;;;;;-145.48;100.00;59605.97;6240810;23;20011;-79
2021/01/28 03:23:16;;;;;;;262.70;41.42;;;;;;;-145.48;100.00;59605.97;6241529;23;20012;-78
2021/01/28 03:25:42;;;;;;;150.60;39.85;;;;;;;-145.48;100.00;59605.97;6240587;23;20299;-78
2021/01/28 03:28:08;;;;;;;214.30;40.45;;;;;;;-145.48;100.00;59605.97;6213568;23;20020;-78
2021/01/28 03:30:40;;;;;;;258.05;43.50;;;;;;;-145.48;100.00;59605.97;6241484;23;20004;-78
2021/01/28 03:33:08;;;;;;;342.73;48.95;;;;;;;-145.48;100.00;59605.97;6238173;23;20365;-78
2021/01/28 03:35:34;;;;;;;198.50;43.78;;;;;;;-145.48;100.00;59605.97;6241230;23;20434;-77
2021/01/28 03:37:59;;;;;;;214.10;42.58;;;;;;;-145.48;100.00;59605.97;6243698;23;20004;-79
2021/01/28 03:40:27;;;;;;;192.40;41.05;;;;;;;-145.48;100.00;59605.97;6246879;23;20426;-78
2021/01/28 03:42:53;;;;;;;194.80;42.42;;;;;;;-145.48;100.00;59605.97;6216608;23;20077;-78
2021/01/28 03:45:18;;;;;;;298.75;44.58;;;;;;;-145.48;100.00;59605.97;6241381;23;20397;-79
2021/01/28 03:47:44;;;;;;;217.43;42.03;;;;;;;-145.48;100.00;59605.97;6207794;23;20025;-77
2021/01/28 03:50:13;;;;;;;244.57;43.55;;;;;;;-145.48;100.00;59605.97;6206965;23;20062;-77
2021/01/28 03:52:38;;;;;;;231.70;42.75;;;;;;;-145.48;100.00;59605.97;6213372;23;20032;-78
2021/01/28 03:55:04;;;;;;;188.45;40.78;;;;;;;-145.48;100.00;59605.97;6214347;23;19997;-78
2021/01/28 03:57:29;;;;;;;236.38;43.30;;;;;;;-145.48;100.00;59605.97;6215297;23;20423;-79
2021/01/28 03:59:55;;;;;;;277.83;45.10;;;;;;;-145.48;100.00;59605.97;6214217;23;20015;-80
2021/01/28 04:02:20;;;;;;;204.63;40.38;;;;;;;-145.48;100.00;59605.97;6216378;23;20004;-79
2021/01/28 04:04:45;;;;;;;156.95;39.20;;;;;;;-145.48;100.00;59605.97;6216316;23;20005;-80
2021/01/28 04:07:11;;;;;;;165.10;37.85;;;;;;;-145.48;100.00;59605.97;6216291;23;20008;-80
2021/01/28 04:09:36;;;;;;;149.23;37.10;;;;;;;-145.48;100.00;59605.97;6212012;23;20055;-79
2021/01/28 04:12:01;;;;;;;142.43;36.80;;;;;;;-145.48;100.00;59605.97;6215120;23;20036;-78
2021/01/28 04:14:27;;;;;;;150.25;35.22;;;;;;;-145.48;100.00;59605.97;6214178;23;20037;-78
2021/01/28 04:16:52;;;;;;;126.22;33.97;;;;;;;-145.48;100.00;59605.97;6211995;23;20081;-78
2021/01/28 04:19:17;;;;;;;153.95;35.40;;;;;;;-145.48;100.00;59605.97;6211887;23;20079;-78
2021/01/28 04:21:43;;;;;;;111.00;33.17;;;;;;;-145.48;100.00;59605.97;6211630;23;20093;-78
2021/01/28 04:24:08;;;;;;;103.88;30.38;;;;;;;-145.48;100.00;59605.97;6214053;23;20399;-78
2021/01/28 04:26:34;;;;;;;86.18;28.25;;;;;;;-145.48;100.00;59605.97;6211503;23;20036;-77
2021/01/28 04:29:01;;;;;;;75.38;27.27;;;;;;;-145.48;100.00;59605.97;6209395;23;20008;-78
2021/01/28 04:31:26;;;;;;;76.15;28.80;;;;;;;-145.48;100.00;59605.97;6206832;23;20104;-78
2021/01/28 04:33:51;;;;;;;63.15;25.50;;;;;;;-145.48;100.00;59605.97;6210792;23;20020;-78
2021/01/28 04:36:17;;;;;;;62.30;24.65;;;;;;;-145.48;100.00;59605.97;6210308;23;20004;-77
2021/01/28 04:38:42;;;;;;;59.15;23.05;;;;;;;-145.48;100.00;59605.97;6209435;23;20004;-77
2021/01/28 04:41:13;;;;;;;58.38;24.50;;;;;;;-145.48;100.00;59605.97;6206776;23;20015;-77
2021/01/28 04:43:39;;;;;;;54.72;23.15;;;;;;;-145.48;100.00;59605.97;6209470;23;20005;-77
2021/01/28 04:46:11;;;;;;;54.15;22.25;;;;;;;-145.48;100.00;59605.97;6213315;22;20430;-77
2021/01/28 04:48:36;;;;;;;52.75;21.92;;;;;;;-145.48;100.00;59605.97;6239050;23;20510;-77
2021/01/28 04:51:05;;;;;;;44.90;21.60;;;;;;;-145.48;100.00;59605.97;6214023;23;20004;-77
2021/01/28 04:53:33;;;;;;;44.47;19.02;;;;;;;-145.48;100.00;59605.97;6242011;23;20008;-76
2021/01/28 04:56:04;;;;;;;42.88;20.00;;;;;;;-145.48;100.00;59605.97;6242067;23;20347;-76
2021/01/28 04:58:29;;;;;;;39.70;18.20;;;;;;;-145.48;100.00;59605.97;6214153;23;20008;-76
2021/01/28 05:00:57;;;;;;;35.25;16.83;;;;;;;-145.48;100.00;59605.97;6240458;23;20015;-76
2021/01/28 05:03:26;;;;;;;35.00;15.63;;;;;;;-145.48;100.00;59605.97;6241217;23;20675;-77
2021/01/28 05:05:53;;;;;;;34.53;16.15;;;;;;;-145.48;100.00;59605.97;6215584;23;20008;-78
2021/01/28 05:08:19;;;;;;;26.77;13.68;;;;;;;-145.48;100.00;59605.97;6242141;23;20346;-78
2021/01/28 05:10:48;;;;;;;28.88;13.93;;;;;;;-145.48;100.00;59605.97;6242094;23;20018;-78
2021/01/28 05:13:33;;;;;;;33.90;15.10;;;;;;;-145.48;100.00;59605.97;6242613;23;20401;-77
2021/01/28 05:16:00;;;;;;;34.95;14.70;;;;;;;-145.48;100.00;59605.97;6241745;23;20501;-78
2021/01/28 05:18:30;;;;;;;27.60;12.93;;;;;;;-145.48;100.00;59605.97;6214300;23;20004;-78
2021/01/28 05:21:17;;;;;;;30.92;13.82;;;;;;;-145.48;100.00;59605.97;6241487;23;20012;-77
2021/01/28 05:23:43;;;;;;;28.45;14.55;;;;;;;-145.48;100.00;59605.97;6244346;23;19999;-78
2021/01/28 05:26:33;;;;;;;32.92;13.93;;;;;;;-145.48;100.00;59605.97;6216748;23;20004;-77
2021/01/28 05:29:30;;;;;;;29.73;13.45;;;;;;;-145.48;100.00;59605.97;6240750;23;20426;-77
2021/01/28 05:31:59;;;;;;;29.65;13.20;;;;;;;-145.48;100.00;59605.97;6235777;23;20111;-77
2021/01/28 05:34:30;;;;;;;28.10;12.77;;;;;;;-145.48;100.00;59605.97;6239211;23;20008;-77
2021/01/28 05:37:02;;;;;;;29.40;13.43;;;;;;;-145.48;100.00;59605.97;6239657;23;20187;-77
2021/01/28 05:39:32;;;;;;;26.45;12.70;;;;;;;-145.48;100.00;59605.97;6239860;23;20008;-78
2021/01/28 05:42:24;;;;;;;24.52;12.88;;;;;;;-145.48;100.00;59605.97;6217214;23;20319;-78
2021/01/28 05:44:49;;;;;;;26.05;13.30;;;;;;;-145.48;100.00;59605.97;6241954;23;20011;-77
2021/01/28 05:47:17;;;;;;;25.33;12.90;;;;;;;-145.48;100.00;59605.97;6242344;22;20094;-78
2021/01/28 05:49:44;;;;;;;25.83;12.20;;;;;;;-145.48;100.00;59605.97;6239900;23;20004;-77
2021/01/28 05:52:20;;;;;;;26.92;13.10;;;;;;;-145.48;100.00;59605.97;6243993;23;20084;-77
2021/01/28 05:55:01;;;;;;;26.55;11.77;;;;;;;-145.48;100.00;59605.97;6242436;23;19996;-78
2021/01/28 05:57:51;;;;;;;19.35;11.02;;;;;;;-145.48;100.00;59605.97;6216113;23;20031;-77
2021/01/28 06:00:25;;;;;;;19.52;9.65;;;;;;;-145.48;100.00;59605.97;6244115;23;20370;-78
2021/01/28 06:03:15;;;;;;;17.95;8.75;;;;;;;-145.48;100.00;59605.97;6244873;23;20326;-79
2021/01/28 06:05:59;;;;;;;13.98;7.95;;;;;;;-145.48;100.00;59605.97;6246359;23;20000;-78
2021/01/28 06:09:02;;;;;;;14.95;8.10;;;;;;;-145.48;100.00;59605.97;6214790;23;20011;-78
2021/01/28 06:11:41;;;;;;;15.75;7.85;;;;;;;-145.48;100.00;59605.97;6242835;23;20015;-78
2021/01/28 06:14:28;;;;;;;13.25;7.00;;;;;;;-145.48;100.00;59605.97;6242916;23;20003;-78
2021/01/28 06:17:13;;;;;;;13.05;7.30;;;;;;;-145.48;100.00;59605.97;6244740;23;20004;-79
2021/01/28 06:19:54;;;;;;;13.38;7.00;;;;;;;-145.48;100.00;59605.97;6242272;23;20004;-78
2021/01/28 06:22:26;;;;;;;13.77;6.40;;;;;;;-145.48;100.00;59605.97;6244018;23;20008;-79
2021/01/28 06:25:03;;;;;;;11.60;6.53;;;;;;;-145.48;100.00;59605.97;6239097;23;20004;-78
2021/01/28 06:27:47;;;;;;;12.45;6.47;;;;;;;-145.48;100.00;59605.97;6245303;23;20008;-78
2021/01/28 06:30:29;;;;;;;13.70;7.40;;;;;;;-145.48;100.00;59605.97;6242046;23;20008;-78
2021/01/28 06:33:07;;;;;;;19.27;7.68;;;;;;;-145.48;100.00;59605.97;6233992;23;20012;-78
2021/01/28 06:35:38;;;;;;;14.18;8.07;;;;;;;-145.48;100.00;59605.97;6238412;23;20469;-77
2021/01/28 06:38:25;;;;;;;13.02;7.78;;;;;;;-145.48;100.00;59605.97;6236901;23;20059;-78
2021/01/28 06:40:54;;;;;;;14.25;6.93;;;;;;;-145.48;100.00;59605.97;6237838;23;20004;-78
2021/01/28 06:43:27;;;;;;;11.90;7.63;;;;;;;-145.48;100.00;59605.97;6209885;23;20004;-78
2021/01/28 06:45:58;;;;;;;13.40;6.60;;;;;;;-145.48;100.00;59605.97;6234545;22;20470;-78
2021/01/28 06:48:34;;;;;;;11.50;6.03;;;;;;;-145.48;100.00;59605.97;6207760;23;20037;-78
2021/01/28 06:51:12;;;;;;;8.82;5.00;;;;;;;-145.48;100.00;59605.97;6236754;23;20024;-78
2021/01/28 06:54:07;;;;;;;9.00;4.90;;;;;;;-145.48;100.00;59605.97;6238387;23;20000;-79
2021/01/28 06:56:43;;;;;;;7.82;4.28;;;;;;;-145.48;100.00;59605.97;6240343;23;20004;-78
2021/01/28 06:59:16;;;;;;;6.80;4.10;;;;;;;-145.48;100.00;59605.97;6211706;23;20039;-79
2021/01/28 07:01:50;;;;;;;6.72;3.53;;;;;;;-145.48;100.00;59605.97;6230642;23;20008;-79
2021/01/28 07:04:18;;;;;;;7.63;4.30;;;;;;;-145.48;100.00;59605.97;6213094;23;20638;-79
2021/01/28 07:07:09;;;;;;;8.13;4.35;;;;;;;-145.48;100.00;59605.97;6212093;23;20008;-79
2021/01/28 07:09:42;;;;;;;6.95;3.95;;;;;;;-145.48;100.00;59605.97;6215036;23;20690;-79
2021/01/28 07:12:13;;;;;;;7.18;4.10;;;;;;;-145.48;100.00;59605.97;6237357;23;20091;-81
2021/01/28 07:14:39;;;;;;;5.75;3.95;;;;;;;-145.48;100.00;59605.97;6238414;23;20004;-80
2021/01/28 07:17:29;;;;;;;8.90;4.85;;;;;;;-145.48;100.00;59605.97;6248352;23;20007;-79
2021/01/28 07:20:00;;;;;;;6.95;3.78;;;;;;;-145.48;100.00;59605.97;6215972;23;20024;-80
2021/01/28 07:22:35;;;;;;;9.13;6.60;;;;;;;-145.48;100.00;59605.97;6244474;23;20004;-80
2021/01/28 07:25:29;;;;;;;12.05;4.63;;;;;;;-145.48;100.00;59605.97;6244722;23;20342;-81
2021/01/28 07:28:18;;;;;;;6.25;3.85;;;;;;;-145.48;100.00;59605.97;6237743;23;20199;-79
2021/01/28 07:30:45;;;;;;;7.03;4.10;;;;;;;-145.48;100.00;59605.97;6238521;23;20004;-79
2021/01/28 07:33:22;;;;;;;6.45;3.50;;;;;;;-145.48;100.00;59605.97;6238446;23;20020;-80
2021/01/28 07:35:52;;;;;;;5.25;2.95;;;;;;;-145.48;100.00;59605.97;6241163;23;20054;-79
2021/01/28 07:38:26;;;;;;;6.30;4.00;;;;;;;-145.48;100.00;59605.97;6244504;23;20015;-80
2021/01/28 07:41:04;;;;;;;8.07;4.03;;;;;;;-145.48;100.00;59605.97;6216422;23;20012;-79
2021/01/28 07:43:48;;;;;;;5.68;3.60;;;;;;;-145.48;100.00;59605.97;6242705;23;20007;-80
2021/01/28 07:46:23;;;;;;;8.48;4.00;;;;;;;-145.48;100.00;59605.97;6241768;23;20019;-80
2021/01/28 07:49:10;;;;;;;8.55;3.70;;;;;;;-145.48;100.00;59605.97;6240734;23;20015;-81
2021/01/28 07:51:40;;;;;;;6.40;4.10;;;;;;;-145.48;100.00;59605.97;6247298;23;20103;-79
2021/01/28 07:54:24;;;;;;;6.72;3.63;;;;;;;-145.48;100.00;59605.97;6216373;23;20512;-78
2021/01/28 07:56:53;;;;;;;5.60;3.60;;;;;;;-145.48;100.00;59605.97;6250810;23;20046;-79
2021/01/28 07:59:34;;;;;;;7.60;3.72;;;;;;;-145.48;100.00;59605.97;6240390;23;20019;-79
2021/01/28 08:02:14;;;;;;;5.68;3.38;;;;;;;-145.48;100.00;59605.97;6214879;23;20007;-82
2021/01/28 08:04:48;;;;;;;5.47;3.70;;;;;;;-145.48;100.00;59605.97;6240032;23;20000;-80
2021/01/28 08:07:20;;;;;;;5.60;3.70;;;;;;;-145.48;100.00;59605.97;6216675;23;20189;-80
2021/01/28 08:09:47;;;;;;;6.05;2.88;;;;;;;-145.48;100.00;59605.97;6244660;23;20154;-77
2021/01/28 08:12:20;;;;;;;4.75;3.25;;;;;;;-145.48;100.00;59605.97;6241663;23;20069;-77
2021/01/28 08:14:45;;;;;;;4.65;3.33;;;;;;;-145.48;100.00;59605.97;6239654;23;20004;-77
2021/01/28 08:17:13;;;;;;;4.97;3.10;;;;;;;-145.48;100.00;59605.97;6243736;23;20058;-80
2021/01/28 08:19:38;;;;;;;4.18;2.85;;;;;;;-145.48;100.00;59605.97;6245227;23;20685;-80
2021/01/28 08:22:09;;;;;;;4.50;3.03;;;;;;;-145.48;100.00;59605.97;6220611;23;20000;-80
2021/01/28 08:24:35;;;;;;;6.22;2.83;;;;;;;-145.48;100.00;59605.97;6249527;23;20027;-80
2021/01/28 08:27:19;;;;;;;5.43;3.10;;;;;;;-145.48;100.00;59605.97;6253793;23;20075;-79
2021/01/28 08:29:44;;;;;;;3.67;2.65;;;;;;;-145.48;100.00;59605.97;6245672;23;20346;-79
2021/01/28 08:32:24;;;;;;;4.20;2.70;;;;;;;-145.48;100.00;59605.97;6239341;23;20008;-79
2021/01/28 08:34:59;;;;;;;3.30;2.47;;;;;;;-145.48;100.00;59605.97;6244641;23;20020;-79
2021/01/28 08:37:24;;;;;;;4.00;2.80;;;;;;;-145.48;100.00;59605.97;6245386;23;20008;-80
2021/01/28 08:39:54;;;;;;;3.28;2.05;;;;;;;-145.48;100.00;59605.97;6217271;23;20014;-80
2021/01/28 08:42:22;;;;;;;6.88;2.75;;;;;;;-145.48;100.00;59605.97;6246911;23;20453;-79
2021/01/28 08:44:49;;;;;;;3.63;2.30;;;;;;;-145.48;100.00;59605.97;6216973;23;20008;-79
2021/01/28 08:47:23;;;;;;;3.92;2.17;;;;;;;-145.48;100.00;59605.97;6242778;22;20024;-79
2021/01/28 08:50:14;;;;;;;2.83;2.10;;;;;;;-145.48;100.00;59605.97;6217625;23;20453;-79
2021/01/28 08:52:42;;;;;;;4.63;2.50;;;;;;;-145.48;100.00;59605.97;6219669;23;20103;-79
2021/01/28 08:55:19;;;;;;;3.45;2.35;;;;;;;-145.48;100.00;59605.97;6219857;23;20013;-81
2021/01/28 08:57:45;;;;;;;5.00;2.17;;;;;;;-145.48;100.00;59605.97;6244391;23;20015;-79
2021/01/28 09:00:13;;;;;;;7.72;2.28;;;;;;;-145.48;100.00;59605.97;6216450;23;20008;-80
2021/01/28 09:02:43;;;;;;;3.75;2.17;;;;;;;-145.48;100.00;59605.97;6243698;23;20031;-77
2021/01/28 09:05:22;;;;;;;3.40;2.20;;;;;;;-145.48;100.00;59605.97;6242892;23;20004;-80
2021/01/28 09:07:52;;;;;;;3.42;2.47;;;;;;;-145.48;100.00;59605.97;6244477;23;20083;-80
2021/01/28 09:10:31;;;;;;;5.03;2.60;;;;;;;-145.48;100.00;59605.97;6244097;23;20469;-79
2021/01/28 09:13:18;;;;;;;3.92;2.70;;;;;;;-145.48;100.00;59605.97;6244376;23;20043;-80
2021/01/28 09:15:44;;;;;;;4.95;3.47;;;;;;;-145.48;100.00;59605.97;6246548;23;20120;-80
2021/01/28 09:18:26;;;;;;;4.03;3.00;;;;;;;-145.48;100.00;59605.97;6242946;23;20011;-78
2021/01/28 09:20:52;;;;;;;6.63;3.40;;;;;;;-145.48;100.00;59605.97;6242222;23;20015;-80
2021/01/28 09:23:19;;;;;;;5.53;3.15;;;;;;;-145.48;100.00;59605.97;6245682;23;20008;-80
2021/01/28 09:25:46;;;;;;;4.53;3.17;;;;;;;-145.48;100.00;59605.97;6246759;23;20000;-79
2021/01/28 09:28:23;;;;;;;4.68;3.20;;;;;;;-145.48;100.00;59605.97;6247362;23;20003;-80
2021/01/28 09:30:51;;;;;;;3.90;2.65;;;;;;;-145.48;100.00;59605.97;6244225;23;20676;-79
2021/01/28 09:33:33;;;;;;;3.15;2.30;;;;;;;-145.48;100.00;59605.97;6241644;23;20492;-81
2021/01/28 09:36:01;;;;;;;3.83;3.15;;;;;;;-145.48;100.00;59605.97;6244288;23;20004;-79
2021/01/28 09:38:27;;;;;;;4.65;2.90;;;;;;;-145.48;100.00;59605.97;6244003;23;20004;-78
2021/01/28 09:41:12;;;;;;;3.35;2.42;;;;;;;-145.48;100.00;59605.97;6242609;23;20014;-79
2021/01/28 09:43:38;;;;;;;3.65;2.45;;;;;;;-145.48;100.00;59605.97;6244176;23;20011;-79
2021/01/28 09:46:10;;;;;;;8.95;2.75;;;;;;;-145.48;100.00;59605.97;6241028;22;20003;-78
2021/01/28 09:48:37;;;;;;;6.63;2.33;;;;;;;-145.48;100.00;59605.97;6241967;23;20087;-78
2021/01/28 09:51:04;;;;;;;3.97;2.38;;;;;;;-145.48;100.00;59605.97;6239992;23;20007;-78
2021/01/28 09:53:30;;;;;;;3.05;2.50;;;;;;;-145.48;100.00;59605.97;6241320;23;20039;-79
2021/01/28 09:55:55;;;;;;;5.38;2.72;;;;;;;-145.48;100.00;59605.97;6241923;23;20039;-78
2021/01/28 09:58:20;;;;;;;3.40;2.90;;;;;;;-145.48;100.00;59605.97;6242017;23;20146;-79
2021/01/28 10:00:46;;;;;;;8.18;3.58;;;;;;;-145.48;100.00;59605.97;6244645;23;20126;-79
2021/01/28 10:03:13;;;;;;;5.10;3.20;;;;;;;-145.48;100.00;59605.97;6243851;23;20304;-79
2021/01/28 10:05:39;;;;;;;5.18;3.60;;;;;;;-145.48;100.00;59605.97;6216737;23;20043;-79
2021/01/28 10:08:04;;;;;;;4.20;3.60;;;;;;;-145.48;100.00;59605.97;6243016;23;20004;-78
2021/01/28 10:10:33;;;;;;;5.80;4.50;;;;;;;-145.48;100.00;59605.97;6217325;23;20007;-79
2021/01/28 10:13:01;;;;;;;4.90;3.20;;;;;;;-145.48;100.00;59605.97;6246208;23;20066;-79
2021/01/28 10:15:27;;;;;;;5.03;3.75;;;;;;;-145.48;100.00;59605.97;6246696;23;20083;-79
2021/01/28 10:17:55;;;;;;;3.95;3.30;;;;;;;-145.48;100.00;59605.97;6245185;23;20389;-79
2021/01/28 10:20:20;;;;;;;5.47;3.67;;;;;;;-145.48;100.00;59605.97;6245004;23;20008;-80
2021/01/28 10:22:46;;;;;;;3.85;3.25;;;;;;;-145.48;100.00;59605.97;6218510;23;20004;-79
2021/01/28 10:25:14;;;;;;;3.78;3.30;;;;;;;-145.48;100.00;59605.97;6217304;23;20043;-79
2021/01/28 10:27:41;;;;;;;4.05;3.28;;;;;;;-145.48;100.00;59605.97;6244338;23;20011;-79
2021/01/28 10:30:08;;;;;;;4.85;3.03;;;;;;;-145.48;100.00;59605.97;6243578;23;20472;-79
2021/01/28 10:32:34;;;;;;;4.28;3.28;;;;;;;-145.48;100.00;59605.97;6240396;23;20473;-79
2021/01/28 10:34:59;;;;;;;4.35;3.45;;;;;;;-145.48;100.00;59605.97;6244006;23;20030;-79
2021/01/28 10:37:25;;;;;;;3.17;2.83;;;;;;;-145.48;100.00;59605.97;6244293;23;20397;-79
2021/01/28 10:39:50;;;;;;;3.67;2.85;;;;;;;-145.48;100.00;59605.97;6244445;23;20004;-79
2021/01/28 10:42:20;;;;;;;3.92;2.55;;;;;;;-145.48;100.00;59605.97;6246184;23;20008;-79
2021/01/28 10:44:49;;;;;;;3.70;2.97;;;;;;;-145.48;100.00;59605.97;6237581;23;20394;-80
2021/01/28 10:47:15;;;;;;;3.30;2.65;;;;;;;-145.48;100.00;59605.97;6202996;23;20371;-79
2021/01/28 10:49:41;;;;;;;4.43;3.10;;;;;;;-145.48;100.00;59605.97;6206553;23;20019;-79
2021/01/28 10:52:06;;;;;;;4.28;2.80;;;;;;;-145.48;100.00;59605.97;6209953;23;20008;-79
2021/01/28 10:54:31;;;;;;;3.92;2.40;;;;;;;-145.48;100.00;59605.97;6209076;23;20000;-80
2021/01/28 10:56:56;;;;;;;3.28;2.63;;;;;;;-145.48;100.00;59605.97;6207158;23;20004;-80
2021/01/28 10:59:22;;;;;;;3.42;2.47;;;;;;;-145.48;100.00;59605.97;6206480;23;20033;-79
2021/01/28 11:01:47;;;;;;;3.40;2.97;;;;;;;-145.48;100.00;59605.97;6209851;23;20043;-80
2021/01/28 11:04:12;;;;;;;4.10;3.25;;;;;;;-145.48;100.00;59605.97;6212026;23;20005;-79
2021/01/28 11:06:38;;;;;;;4.05;2.72;;;;;;;-145.48;100.00;59605.97;6210193;23;20005;-79
2021/01/28 11:09:03;;;;;;;5.18;2.80;;;;;;;-145.48;100.00;59605.97;6209060;23;20008;-79
2021/01/28 11:11:29;;;;;;;3.30;2.67;;;;;;;-145.48;100.00;59605.97;6203343;23;20613;-80